sensor_id;sensor_type;location;lat;lon;timestamp;P1;durP1;ratioP1;P2;durP2;ratioP2
9854;SDS011;4966;48.112;9.282;2023-03-22T00:00:47;6.93;;;2.72;;
9854;SDS011;4966;48.112;9.282;2023-03-22T00:03:12;5.95;;;3.13;;
9854;SDS011;4966;48.112;9.282;2023-03-22T00:05:38;6.97;;;2.50;;
9854;SDS011;4966;48.112;9.282;2023-03-22T00:08:04;4.78;;;2.92;;
9854;SDS011;4966;48.112;9.282;2023-03-22T00:10:31;6.28;;;2.50;;
9854;SDS011;4966;48.112;9.282;2023-03-22T00:12:57;7.78;;;3.05;;
9854;SDS011;4966;48.112;9.282;2023-03-22T00:15:23;6.20;;;2.97;;
9854;SDS011;4966;48.112;9.282;2023-03-22T00:17:48;7.40;;;2.90;;
9854;SDS011;4966;48.112;9.282;2023-03-22T00:20:16;4.57;;;2.55;;
9854;SDS011;4966;48.112;9.282;2023-03-22T00:22:43;9.05;;;3.28;;
9854;SDS011;4966;48.112;9.282;2023-03-22T00:25:09;5.90;;;3.15;;
9854;SDS011;4966;48.112;9.282;2023-03-22T00:27:35;7.10;;;2.70;;
9854;SDS011;4966;48.112;9.282;2023-03-22T00:30:00;4.57;;;2.85;;
9854;SDS011;4966;48.112;9.282;2023-03-22T00:32:26;6.70;;;2.53;;
9854;SDS011;4966;48.112;9.282;2023-03-22T00:34:51;5.22;;;2.67;;
9854;SDS011;4966;48.112;9.282;2023-03-22T00:37:17;5.82;;;2.45;;
9854;SDS011;4966;48.112;9.282;2023-03-22T00:39:43;5.68;;;2.47;;
9854;SDS011;4966;48.112;9.282;2023-03-22T00:42:08;4.93;;;2.70;;
9854;SDS011;4966;48.112;9.282;2023-03-22T00:44:34;8.48;;;2.83;;
9854;SDS011;4966;48.112;9.282;2023-03-22T00:47:00;4.15;;;2.30;;
9854;SDS011;4966;48.112;9.282;2023-03-22T00:49:25;4.47;;;2.40;;
9854;SDS011;4966;48.112;9.282;2023-03-22T00:51:51;4.95;;;2.20;;
9854;SDS011;4966;48.112;9.282;2023-03-22T00:54:17;4.15;;;1.98;;
9854;SDS011;4966;48.112;9.282;2023-03-22T00:56:42;5.20;;;2.13;;
9854;SDS011;4966;48.112;9.282;2023-03-22T00:59:11;6.68;;;2.33;;
9854;SDS011;4966;48.112;9.282;2023-03-22T01:01:38;4.15;;;1.98;;
9854;SDS011;4966;48.112;9.282;2023-03-22T01:04:04;5.13;;;2.40;;
9854;SDS011;4966;48.112;9.282;2023-03-22T01:06:30;4.63;;;2.42;;
9854;SDS011;4966;48.112;9.282;2023-03-22T01:08:56;5.32;;;2.17;;
9854;SDS011;4966;48.112;9.282;2023-03-22T01:11:22;3.78;;;2.13;;
9854;SDS011;4966;48.112;9.282;2023-03-22T01:13:48;3.90;;;2.03;;
9854;SDS011;4966;48.112;9.282;2023-03-22T01:16:14;3.85;;;2.13;;
9854;SDS011;4966;48.112;9.282;2023-03-22T01:18:40;5.20;;;1.92;;
9854;SDS011;4966;48.112;9.282;2023-03-22T01:21:05;3.28;;;2.00;;
9854;SDS011;4966;48.112;9.282;2023-03-22T01:23:31;3.78;;;1.98;;
9854;SDS011;4966;48.112;9.282;2023-03-22T01:25:56;6.30;;;2.10;;
9854;SDS011;4966;48.112;9.282;2023-03-22T01:28:21;6.20;;;2.42;;
9854;SDS011;4966;48.112;9.282;2023-03-22T01:30:47;8.23;;;2.35;;
9854;SDS011;4966;48.112;9.282;2023-03-22T01:33:12;3.70;;;1.88;;
9854;SDS011;4966;48.112;9.282;2023-03-22T01:35:38;3.90;;;1.85;;
9854;SDS011;4966;48.112;9.282;2023-03-22T01:38:03;6.97;;;2.20;;
9854;SDS011;4966;48.112;9.282;2023-03-22T01:40:29;5.93;;;2.10;;
9854;SDS011;4966;48.112;9.282;2023-03-22T01:42:55;6.10;;;2.00;;
9854;SDS011;4966;48.112;9.282;2023-03-22T01:51:08;7.32;;;2.17;;
9854;SDS011;4966;48.112;9.282;2023-03-22T01:53:38;8.88;;;2.83;;
9854;SDS011;4966;48.112;9.282;2023-03-22T01:56:07;8.13;;;1.95;;
9854;SDS011;4966;48.112;9.282;2023-03-22T01:58:35;5.57;;;2.08;;
9854;SDS011;4966;48.112;9.282;2023-03-22T02:01:02;2.78;;;1.58;;
9854;SDS011;4966;48.112;9.282;2023-03-22T02:03:35;3.58;;;2.00;;
9854;SDS011;4966;48.112;9.282;2023-03-22T02:06:08;3.53;;;1.52;;
9854;SDS011;4966;48.112;9.282;2023-03-22T02:08:34;8.45;;;1.92;;
9854;SDS011;4966;48.112;9.282;2023-03-22T02:10:59;5.82;;;1.80;;
9854;SDS011;4966;48.112;9.282;2023-03-22T02:13:36;2.88;;;1.63;;
9854;SDS011;4966;48.112;9.282;2023-03-22T02:19:15;2.85;;;1.67;;
9854;SDS011;4966;48.112;9.282;2023-03-22T02:27:28;4.15;;;1.35;;
9854;SDS011;4966;48.112;9.282;2023-03-22T02:33:08;2.97;;;1.58;;
9854;SDS011;4966;48.112;9.282;2023-03-22T02:43:44;3.00;;;1.50;;
9854;SDS011;4966;48.112;9.282;2023-03-22T02:46:27;2.40;;;1.30;;
9854;SDS011;4966;48.112;9.282;2023-03-22T02:49:09;2.15;;;1.35;;
9854;SDS011;4966;48.112;9.282;2023-03-22T02:51:43;5.68;;;1.90;;
9854;SDS011;4966;48.112;9.282;2023-03-22T02:54:18;2.78;;;1.58;;
9854;SDS011;4966;48.112;9.282;2023-03-22T02:56:55;8.35;;;1.63;;
9854;SDS011;4966;48.112;9.282;2023-03-22T02:59:27;7.50;;;1.77;;
9854;SDS011;4966;48.112;9.282;2023-03-22T03:01:56;4.65;;;1.55;;
9854;SDS011;4966;48.112;9.282;2023-03-22T03:04:28;3.10;;;1.40;;
9854;SDS011;4966;48.112;9.282;2023-03-22T03:07:04;3.17;;;1.63;;
9854;SDS011;4966;48.112;9.282;2023-03-22T03:09:33;5.35;;;1.58;;
9854;SDS011;4966;48.112;9.282;2023-03-22T03:12:00;4.95;;;1.50;;
9854;SDS011;4966;48.112;9.282;2023-03-22T03:14:28;7.65;;;1.80;;
9854;SDS011;4966;48.112;9.282;2023-03-22T03:19:31;6.70;;;1.83;;
9854;SDS011;4966;48.112;9.282;2023-03-22T03:22:16;2.40;;;1.45;;
9854;SDS011;4966;48.112;9.282;2023-03-22T03:27:45;2.65;;;1.38;;
9854;SDS011;4966;48.112;9.282;2023-03-22T03:30:24;4.88;;;1.73;;
9854;SDS011;4966;48.112;9.282;2023-03-22T03:33:13;3.88;;;1.60;;
9854;SDS011;4966;48.112;9.282;2023-03-22T03:36:00;2.72;;;1.60;;
9854;SDS011;4966;48.112;9.282;2023-03-22T03:38:33;5.00;;;1.48;;
9854;SDS011;4966;48.112;9.282;2023-03-22T03:41:06;4.25;;;1.45;;
9854;SDS011;4966;48.112;9.282;2023-03-22T03:43:37;2.70;;;1.60;;
9854;SDS011;4966;48.112;9.282;2023-03-22T03:46:04;2.75;;;1.33;;
9854;SDS011;4966;48.112;9.282;2023-03-22T03:48:31;2.50;;;1.27;;
9854;SDS011;4966;48.112;9.282;2023-03-22T03:50:59;6.30;;;1.58;;
9854;SDS011;4966;48.112;9.282;2023-03-22T03:53:26;5.30;;;1.45;;
9854;SDS011;4966;48.112;9.282;2023-03-22T03:55:51;2.92;;;1.40;;
9854;SDS011;4966;48.112;9.282;2023-03-22T03:58:17;2.55;;;1.42;;
9854;SDS011;4966;48.112;9.282;2023-03-22T04:00:43;4.03;;;1.42;;
9854;SDS011;4966;48.112;9.282;2023-03-22T04:03:10;2.33;;;1.23;;
9854;SDS011;4966;48.112;9.282;2023-03-22T04:05:36;2.85;;;1.45;;
9854;SDS011;4966;48.112;9.282;2023-03-22T04:08:02;3.25;;;1.70;;
9854;SDS011;4966;48.112;9.282;2023-03-22T04:10:28;3.65;;;1.70;;
9854;SDS011;4966;48.112;9.282;2023-03-22T04:12:53;7.13;;;1.75;;
9854;SDS011;4966;48.112;9.282;2023-03-22T04:15:18;3.90;;;1.40;;
9854;SDS011;4966;48.112;9.282;2023-03-22T04:17:44;3.35;;;1.55;;
9854;SDS011;4966;48.112;9.282;2023-03-22T04:20:10;4.22;;;1.55;;
9854;SDS011;4966;48.112;9.282;2023-03-22T04:22:37;2.17;;;1.33;;
9854;SDS011;4966;48.112;9.282;2023-03-22T04:25:04;3.85;;;1.38;;
9854;SDS011;4966;48.112;9.282;2023-03-22T04:27:36;2.25;;;1.30;;
9854;SDS011;4966;48.112;9.282;2023-03-22T04:30:03;2.15;;;1.13;;
9854;SDS011;4966;48.112;9.282;2023-03-22T04:32:30;3.92;;;1.08;;
9854;SDS011;4966;48.112;9.282;2023-03-22T04:34:55;2.67;;;1.23;;
9854;SDS011;4966;48.112;9.282;2023-03-22T04:37:21;3.17;;;1.33;;
9854;SDS011;4966;48.112;9.282;2023-03-22T04:39:51;2.60;;;1.38;;
9854;SDS011;4966;48.112;9.282;2023-03-22T04:42:16;2.63;;;1.23;;
9854;SDS011;4966;48.112;9.282;2023-03-22T04:44:42;3.00;;;1.40;;
9854;SDS011;4966;48.112;9.282;2023-03-22T04:47:07;2.15;;;1.15;;
9854;SDS011;4966;48.112;9.282;2023-03-22T04:49:33;4.75;;;1.40;;
9854;SDS011;4966;48.112;9.282;2023-03-22T04:51:58;3.05;;;1.40;;
9854;SDS011;4966;48.112;9.282;2023-03-22T04:54:23;3.40;;;1.30;;
9854;SDS011;4966;48.112;9.282;2023-03-22T04:56:49;4.15;;;1.60;;
9854;SDS011;4966;48.112;9.282;2023-03-22T04:59:15;2.55;;;1.13;;
9854;SDS011;4966;48.112;9.282;2023-03-22T05:01:44;2.90;;;1.27;;
9854;SDS011;4966;48.112;9.282;2023-03-22T05:04:10;2.90;;;1.13;;
9854;SDS011;4966;48.112;9.282;2023-03-22T05:06:35;2.72;;;1.15;;
9854;SDS011;4966;48.112;9.282;2023-03-22T05:09:01;3.30;;;1.60;;
9854;SDS011;4966;48.112;9.282;2023-03-22T05:11:26;10.50;;;3.97;;
9854;SDS011;4966;48.112;9.282;2023-03-22T05:13:52;4.15;;;1.63;;
9854;SDS011;4966;48.112;9.282;2023-03-22T05:16:19;3.28;;;1.55;;
9854;SDS011;4966;48.112;9.282;2023-03-22T05:18:45;3.97;;;1.45;;
9854;SDS011;4966;48.112;9.282;2023-03-22T05:21:11;4.30;;;1.60;;
9854;SDS011;4966;48.112;9.282;2023-03-22T05:23:39;3.53;;;1.33;;
9854;SDS011;4966;48.112;9.282;2023-03-22T05:26:06;3.08;;;1.15;;
9854;SDS011;4966;48.112;9.282;2023-03-22T05:28:32;3.15;;;1.30;;
9854;SDS011;4966;48.112;9.282;2023-03-22T05:30:58;3.42;;;1.20;;
9854;SDS011;4966;48.112;9.282;2023-03-22T05:33:23;2.88;;;1.30;;
9854;SDS011;4966;48.112;9.282;2023-03-22T05:35:49;2.22;;;1.30;;
9854;SDS011;4966;48.112;9.282;2023-03-22T05:38:15;4.80;;;1.42;;
9854;SDS011;4966;48.112;9.282;2023-03-22T05:40:41;3.25;;;1.42;;
9854;SDS011;4966;48.112;9.282;2023-03-22T05:43:07;8.45;;;1.40;;
9854;SDS011;4966;48.112;9.282;2023-03-22T05:45:34;2.88;;;1.42;;
9854;SDS011;4966;48.112;9.282;2023-03-22T05:48:01;6.53;;;2.17;;
9854;SDS011;4966;48.112;9.282;2023-03-22T05:50:26;2.70;;;1.40;;
9854;SDS011;4966;48.112;9.282;2023-03-22T05:52:52;2.65;;;1.42;;
9854;SDS011;4966;48.112;9.282;2023-03-22T05:55:17;2.72;;;1.50;;
9854;SDS011;4966;48.112;9.282;2023-03-22T05:57:43;2.85;;;1.38;;
9854;SDS011;4966;48.112;9.282;2023-03-22T06:00:11;2.35;;;1.30;;
9854;SDS011;4966;48.112;9.282;2023-03-22T06:02:42;2.92;;;1.45;;
9854;SDS011;4966;48.112;9.282;2023-03-22T06:05:08;2.53;;;1.23;;
9854;SDS011;4966;48.112;9.282;2023-03-22T06:07:35;2.72;;;1.55;;
9854;SDS011;4966;48.112;9.282;2023-03-22T06:10:01;2.65;;;1.40;;
9854;SDS011;4966;48.112;9.282;2023-03-22T06:12:28;5.30;;;1.35;;
9854;SDS011;4966;48.112;9.282;2023-03-22T06:14:53;4.75;;;1.35;;
9854;SDS011;4966;48.112;9.282;2023-03-22T06:17:19;9.40;;;1.40;;
9854;SDS011;4966;48.112;9.282;2023-03-22T06:19:44;4.18;;;1.60;;
9854;SDS011;4966;48.112;9.282;2023-03-22T06:22:10;2.53;;;1.40;;
9854;SDS011;4966;48.112;9.282;2023-03-22T06:24:35;5.20;;;1.60;;
9854;SDS011;4966;48.112;9.282;2023-03-22T06:27:01;4.53;;;1.60;;
9854;SDS011;4966;48.112;9.282;2023-03-22T06:29:27;3.97;;;1.40;;
9854;SDS011;4966;48.112;9.282;2023-03-22T06:31:52;3.97;;;1.27;;
9854;SDS011;4966;48.112;9.282;2023-03-22T06:34:18;4.13;;;1.73;;
9854;SDS011;4966;48.112;9.282;2023-03-22T06:36:43;3.58;;;1.75;;
9854;SDS011;4966;48.112;9.282;2023-03-22T06:39:08;6.95;;;1.83;;
9854;SDS011;4966;48.112;9.282;2023-03-22T06:41:34;7.18;;;2.63;;
9854;SDS011;4966;48.112;9.282;2023-03-22T06:43:59;5.60;;;2.20;;
9854;SDS011;4966;48.112;9.282;2023-03-22T06:46:26;3.30;;;1.63;;
9854;SDS011;4966;48.112;9.282;2023-03-22T06:48:51;10.90;;;4.65;;
9854;SDS011;4966;48.112;9.282;2023-03-22T06:51:17;6.63;;;2.90;;
9854;SDS011;4966;48.112;9.282;2023-03-22T06:53:42;5.57;;;2.47;;
9854;SDS011;4966;48.112;9.282;2023-03-22T06:56:08;8.50;;;2.40;;
9854;SDS011;4966;48.112;9.282;2023-03-22T06:58:33;4.60;;;2.58;;
9854;SDS011;4966;48.112;9.282;2023-03-22T07:00:59;6.55;;;2.67;;
9854;SDS011;4966;48.112;9.282;2023-03-22T07:03:24;7.32;;;2.90;;
9854;SDS011;4966;48.112;9.282;2023-03-22T07:05:49;8.77;;;3.65;;
9854;SDS011;4966;48.112;9.282;2023-03-22T07:08:15;5.85;;;2.75;;
9854;SDS011;4966;48.112;9.282;2023-03-22T07:10:40;7.18;;;3.28;;
9854;SDS011;4966;48.112;9.282;2023-03-22T07:13:07;7.43;;;3.70;;
9854;SDS011;4966;48.112;9.282;2023-03-22T07:15:33;9.05;;;4.80;;
9854;SDS011;4966;48.112;9.282;2023-03-22T07:17:59;10.73;;;4.95;;
9854;SDS011;4966;48.112;9.282;2023-03-22T07:20:26;10.60;;;5.18;;
9854;SDS011;4966;48.112;9.282;2023-03-22T07:22:52;9.73;;;5.57;;
9854;SDS011;4966;48.112;9.282;2023-03-22T07:25:17;11.60;;;5.50;;
9854;SDS011;4966;48.112;9.282;2023-03-22T07:27:44;12.30;;;6.20;;
9854;SDS011;4966;48.112;9.282;2023-03-22T07:30:09;12.77;;;6.22;;
9854;SDS011;4966;48.112;9.282;2023-03-22T07:32:37;11.60;;;5.95;;
9854;SDS011;4966;48.112;9.282;2023-03-22T07:35:03;11.93;;;5.80;;
9854;SDS011;4966;48.112;9.282;2023-03-22T07:37:29;10.45;;;5.03;;
9854;SDS011;4966;48.112;9.282;2023-03-22T07:39:54;9.32;;;4.85;;
9854;SDS011;4966;48.112;9.282;2023-03-22T07:42:20;9.57;;;4.95;;
9854;SDS011;4966;48.112;9.282;2023-03-22T07:44:45;10.38;;;4.95;;
9854;SDS011;4966;48.112;9.282;2023-03-22T07:47:12;12.63;;;4.82;;
9854;SDS011;4966;48.112;9.282;2023-03-22T07:49:37;8.35;;;4.40;;
9854;SDS011;4966;48.112;9.282;2023-03-22T07:52:02;7.55;;;4.20;;
9854;SDS011;4966;48.112;9.282;2023-03-22T07:54:28;8.07;;;4.20;;
9854;SDS011;4966;48.112;9.282;2023-03-22T07:56:53;7.85;;;4.13;;
9854;SDS011;4966;48.112;9.282;2023-03-22T07:59:19;7.38;;;3.95;;
9854;SDS011;4966;48.112;9.282;2023-03-22T08:01:44;7.85;;;3.92;;
9854;SDS011;4966;48.112;9.282;2023-03-22T08:04:10;5.63;;;3.20;;
9854;SDS011;4966;48.112;9.282;2023-03-22T08:06:35;5.95;;;3.35;;
9854;SDS011;4966;48.112;9.282;2023-03-22T08:09:04;6.25;;;3.33;;
9854;SDS011;4966;48.112;9.282;2023-03-22T08:11:29;5.30;;;2.88;;
9854;SDS011;4966;48.112;9.282;2023-03-22T08:13:54;7.55;;;3.95;;
9854;SDS011;4966;48.112;9.282;2023-03-22T08:16:20;7.40;;;3.88;;
9854;SDS011;4966;48.112;9.282;2023-03-22T08:18:46;7.13;;;3.47;;
9854;SDS011;4966;48.112;9.282;2023-03-22T08:21:12;8.55;;;3.60;;
9854;SDS011;4966;48.112;9.282;2023-03-22T08:23:37;6.85;;;2.70;;
9854;SDS011;4966;48.112;9.282;2023-03-22T08:26:03;4.88;;;2.63;;
9854;SDS011;4966;48.112;9.282;2023-03-22T08:28:28;5.15;;;3.10;;
9854;SDS011;4966;48.112;9.282;2023-03-22T08:30:53;5.55;;;2.30;;
9854;SDS011;4966;48.112;9.282;2023-03-22T08:33:19;3.95;;;1.88;;
9854;SDS011;4966;48.112;9.282;2023-03-22T08:35:47;3.03;;;1.33;;
9854;SDS011;4966;48.112;9.282;2023-03-22T08:38:13;3.15;;;1.48;;
9854;SDS011;4966;48.112;9.282;2023-03-22T08:40:38;6.43;;;1.45;;
9854;SDS011;4966;48.112;9.282;2023-03-22T08:43:04;2.90;;;1.05;;
9854;SDS011;4966;48.112;9.282;2023-03-22T08:45:29;3.70;;;1.50;;
9854;SDS011;4966;48.112;9.282;2023-03-22T08:47:56;3.97;;;1.35;;
9854;SDS011;4966;48.112;9.282;2023-03-22T08:50:21;6.22;;;1.50;;
9854;SDS011;4966;48.112;9.282;2023-03-22T08:52:47;3.05;;;1.67;;
9854;SDS011;4966;48.112;9.282;2023-03-22T08:55:13;2.80;;;1.73;;
9854;SDS011;4966;48.112;9.282;2023-03-22T08:57:41;4.32;;;1.60;;
9854;SDS011;4966;48.112;9.282;2023-03-22T09:00:08;3.78;;;1.80;;
9854;SDS011;4966;48.112;9.282;2023-03-22T09:02:35;3.72;;;1.80;;
9854;SDS011;4966;48.112;9.282;2023-03-22T09:05:01;3.40;;;1.63;;
9854;SDS011;4966;48.112;9.282;2023-03-22T09:07:27;3.75;;;1.42;;
9854;SDS011;4966;48.112;9.282;2023-03-22T09:09:52;10.55;;;1.75;;
9854;SDS011;4966;48.112;9.282;2023-03-22T09:12:17;3.97;;;1.70;;
9854;SDS011;4966;48.112;9.282;2023-03-22T09:14:43;11.32;;;1.83;;
9854;SDS011;4966;48.112;9.282;2023-03-22T09:17:10;4.57;;;1.40;;
9854;SDS011;4966;48.112;9.282;2023-03-22T09:19:36;3.03;;;1.55;;
9854;SDS011;4966;48.112;9.282;2023-03-22T09:22:01;2.97;;;1.27;;
9854;SDS011;4966;48.112;9.282;2023-03-22T09:24:26;3.20;;;1.30;;
9854;SDS011;4966;48.112;9.282;2023-03-22T09:26:52;2.88;;;1.40;;
9854;SDS011;4966;48.112;9.282;2023-03-22T09:29:17;3.58;;;1.45;;
9854;SDS011;4966;48.112;9.282;2023-03-22T09:31:43;2.40;;;1.25;;
9854;SDS011;4966;48.112;9.282;2023-03-22T09:34:12;2.67;;;1.30;;
9854;SDS011;4966;48.112;9.282;2023-03-22T09:36:38;4.07;;;1.13;;
9854;SDS011;4966;48.112;9.282;2023-03-22T09:39:04;3.45;;;1.30;;
9854;SDS011;4966;48.112;9.282;2023-03-22T09:44:00;3.80;;;1.13;;
9854;SDS011;4966;48.112;9.282;2023-03-22T09:46:29;2.47;;;1.13;;
9854;SDS011;4966;48.112;9.282;2023-03-22T09:48:59;2.53;;;1.10;;
9854;SDS011;4966;48.112;9.282;2023-03-22T09:51:37;2.95;;;1.25;;
9854;SDS011;4966;48.112;9.282;2023-03-22T09:54:12;2.03;;;1.20;;
9854;SDS011;4966;48.112;9.282;2023-03-22T09:56:39;2.30;;;1.00;;
9854;SDS011;4966;48.112;9.282;2023-03-22T10:01:38;2.70;;;1.13;;
9854;SDS011;4966;48.112;9.282;2023-03-22T10:06:53;3.55;;;1.20;;
9854;SDS011;4966;48.112;9.282;2023-03-22T10:09:43;3.40;;;1.42;;
9854;SDS011;4966;48.112;9.282;2023-03-22T10:12:45;3.35;;;1.30;;
9854;SDS011;4966;48.112;9.282;2023-03-22T10:15:31;2.25;;;1.02;;
9854;SDS011;4966;48.112;9.282;2023-03-22T10:18:00;4.50;;;0.98;;
9854;SDS011;4966;48.112;9.282;2023-03-22T10:20:37;2.95;;;1.25;;
9854;SDS011;4966;48.112;9.282;2023-03-22T10:23:05;2.55;;;1.23;;
9854;SDS011;4966;48.112;9.282;2023-03-22T10:25:38;2.78;;;1.15;;
9854;SDS011;4966;48.112;9.282;2023-03-22T10:28:09;6.03;;;1.23;;
9854;SDS011;4966;48.112;9.282;2023-03-22T10:30:40;3.05;;;1.27;;
9854;SDS011;4966;48.112;9.282;2023-03-22T10:33:11;5.45;;;1.48;;
9854;SDS011;4966;48.112;9.282;2023-03-22T10:35:40;3.88;;;1.30;;
9854;SDS011;4966;48.112;9.282;2023-03-22T10:38:08;2.33;;;1.30;;
9854;SDS011;4966;48.112;9.282;2023-03-22T10:40:43;2.50;;;1.35;;
9854;SDS011;4966;48.112;9.282;2023-03-22T10:43:43;2.97;;;1.45;;
9854;SDS011;4966;48.112;9.282;2023-03-22T10:46:04;2.13;;;1.05;;
9854;SDS011;4966;48.112;9.282;2023-03-22T10:48:35;2.40;;;1.17;;
9854;SDS011;4966;48.112;9.282;2023-03-22T10:51:04;2.20;;;1.30;;
9854;SDS011;4966;48.112;9.282;2023-03-22T10:53:41;4.55;;;1.30;;
9854;SDS011;4966;48.112;9.282;2023-03-22T10:56:11;2.63;;;1.02;;
9854;SDS011;4966;48.112;9.282;2023-03-22T10:58:40;3.50;;;1.50;;
9854;SDS011;4966;48.112;9.282;2023-03-22T11:01:07;4.18;;;1.48;;
9854;SDS011;4966;48.112;9.282;2023-03-22T11:08:37;2.88;;;1.50;;
9854;SDS011;4966;48.112;9.282;2023-03-22T11:11:15;2.97;;;1.42;;
9854;SDS011;4966;48.112;9.282;2023-03-22T11:13:53;7.63;;;1.25;;
9854;SDS011;4966;48.112;9.282;2023-03-22T11:16:25;2.10;;;1.30;;
9854;SDS011;4966;48.112;9.282;2023-03-22T11:18:50;2.95;;;1.48;;
9854;SDS011;4966;48.112;9.282;2023-03-22T11:21:16;3.90;;;1.60;;
9854;SDS011;4966;48.112;9.282;2023-03-22T11:23:54;3.38;;;1.60;;
9854;SDS011;4966;48.112;9.282;2023-03-22T11:26:24;2.13;;;1.27;;
9854;SDS011;4966;48.112;9.282;2023-03-22T11:28:52;3.22;;;1.33;;
9854;SDS011;4966;48.112;9.282;2023-03-22T11:31:26;2.33;;;1.50;;
9854;SDS011;4966;48.112;9.282;2023-03-22T11:34:15;2.47;;;1.60;;
9854;SDS011;4966;48.112;9.282;2023-03-22T11:36:43;2.33;;;1.13;;
9854;SDS011;4966;48.112;9.282;2023-03-22T11:39:10;2.67;;;1.23;;
9854;SDS011;4966;48.112;9.282;2023-03-22T11:41:37;4.03;;;1.50;;
9854;SDS011;4966;48.112;9.282;2023-03-22T11:44:05;2.55;;;1.40;;
9854;SDS011;4966;48.112;9.282;2023-03-22T11:46:34;2.75;;;1.40;;
9854;SDS011;4966;48.112;9.282;2023-03-22T11:49:03;2.63;;;1.42;;
9854;SDS011;4966;48.112;9.282;2023-03-22T11:51:36;2.72;;;1.65;;
9854;SDS011;4966;48.112;9.282;2023-03-22T11:54:12;3.58;;;1.42;;
9854;SDS011;4966;48.112;9.282;2023-03-22T11:56:53;4.63;;;1.40;;
9854;SDS011;4966;48.112;9.282;2023-03-22T11:59:23;3.92;;;1.23;;
9854;SDS011;4966;48.112;9.282;2023-03-22T12:01:57;3.45;;;1.33;;
9854;SDS011;4966;48.112;9.282;2023-03-22T12:04:30;3.10;;;1.35;;
9854;SDS011;4966;48.112;9.282;2023-03-22T12:07:01;3.15;;;1.17;;
9854;SDS011;4966;48.112;9.282;2023-03-22T12:09:37;2.63;;;1.40;;
9854;SDS011;4966;48.112;9.282;2023-03-22T12:12:09;2.58;;;1.08;;
9854;SDS011;4966;48.112;9.282;2023-03-22T12:17:41;2.10;;;1.05;;
9854;SDS011;4966;48.112;9.282;2023-03-22T12:22:40;2.25;;;1.05;;
9854;SDS011;4966;48.112;9.282;2023-03-22T12:25:13;2.97;;;1.05;;
9854;SDS011;4966;48.112;9.282;2023-03-22T12:27:42;2.97;;;1.02;;
9854;SDS011;4966;48.112;9.282;2023-03-22T12:30:13;2.75;;;1.13;;
9854;SDS011;4966;48.112;9.282;2023-03-22T12:32:48;2.00;;;1.10;;
9854;SDS011;4966;48.112;9.282;2023-03-22T12:35:21;3.97;;;1.00;;
9854;SDS011;4966;48.112;9.282;2023-03-22T12:37:53;2.28;;;1.10;;
9854;SDS011;4966;48.112;9.282;2023-03-22T12:40:24;4.00;;;1.05;;
9854;SDS011;4966;48.112;9.282;2023-03-22T12:45:24;1.60;;;1.00;;
9854;SDS011;4966;48.112;9.282;2023-03-22T12:47:57;2.42;;;1.00;;
9854;SDS011;4966;48.112;9.282;2023-03-22T12:50:32;2.28;;;1.10;;
9854;SDS011;4966;48.112;9.282;2023-03-22T12:53:02;2.60;;;0.93;;
9854;SDS011;4966;48.112;9.282;2023-03-22T12:55:29;2.00;;;1.05;;
9854;SDS011;4966;48.112;9.282;2023-03-22T12:57:55;3.97;;;1.00;;
9854;SDS011;4966;48.112;9.282;2023-03-22T13:00:26;1.70;;;0.90;;
9854;SDS011;4966;48.112;9.282;2023-03-22T13:05:26;2.35;;;1.00;;
9854;SDS011;4966;48.112;9.282;2023-03-22T13:07:53;2.50;;;1.05;;
9854;SDS011;4966;48.112;9.282;2023-03-22T13:15:39;0.90;;;0.60;;
9854;SDS011;4966;48.112;9.282;2023-03-22T13:21:07;2.83;;;1.02;;
9854;SDS011;4966;48.112;9.282;2023-03-22T13:23:32;1.27;;;0.73;;
9854;SDS011;4966;48.112;9.282;2023-03-22T13:25:58;2.78;;;0.82;;
9854;SDS011;4966;48.112;9.282;2023-03-22T13:28:26;2.15;;;0.98;;
9854;SDS011;4966;48.112;9.282;2023-03-22T13:30:56;2.80;;;0.80;;
9854;SDS011;4966;48.112;9.282;2023-03-22T13:38:52;1.25;;;0.80;;
9854;SDS011;4966;48.112;9.282;2023-03-22T13:41:20;1.52;;;0.80;;
9854;SDS011;4966;48.112;9.282;2023-03-22T13:43:51;2.13;;;0.80;;
9854;SDS011;4966;48.112;9.282;2023-03-22T13:51:15;2.35;;;0.60;;
9854;SDS011;4966;48.112;9.282;2023-03-22T13:56:31;3.92;;;0.60;;
9854;SDS011;4966;48.112;9.282;2023-03-22T13:59:09;1.52;;;0.80;;
9854;SDS011;4966;48.112;9.282;2023-03-22T14:01:37;1.52;;;0.70;;
9854;SDS011;4966;48.112;9.282;2023-03-22T14:06:41;1.90;;;0.70;;
9854;SDS011;4966;48.112;9.282;2023-03-22T14:09:32;2.35;;;1.02;;
9854;SDS011;4966;48.112;9.282;2023-03-22T14:14:51;2.92;;;1.20;;
9854;SDS011;4966;48.112;9.282;2023-03-22T14:20:03;1.70;;;0.70;;
9854;SDS011;4966;48.112;9.282;2023-03-22T14:22:35;3.45;;;0.80;;
9854;SDS011;4966;48.112;9.282;2023-03-22T14:25:05;1.35;;;0.70;;
9854;SDS011;4966;48.112;9.282;2023-03-22T14:27:33;2.05;;;0.90;;
9854;SDS011;4966;48.112;9.282;2023-03-22T14:30:00;1.65;;;0.77;;
9854;SDS011;4966;48.112;9.282;2023-03-22T14:32:26;1.58;;;0.90;;
9854;SDS011;4966;48.112;9.282;2023-03-22T14:34:57;2.10;;;1.15;;
9854;SDS011;4966;48.112;9.282;2023-03-22T14:37:28;1.95;;;0.90;;
9854;SDS011;4966;48.112;9.282;2023-03-22T14:39:54;2.03;;;0.82;;
9854;SDS011;4966;48.112;9.282;2023-03-22T14:42:25;1.48;;;0.70;;
9854;SDS011;4966;48.112;9.282;2023-03-22T14:44:58;2.25;;;0.90;;
9854;SDS011;4966;48.112;9.282;2023-03-22T14:47:29;1.85;;;1.15;;
9854;SDS011;4966;48.112;9.282;2023-03-22T14:50:07;2.17;;;1.20;;
9854;SDS011;4966;48.112;9.282;2023-03-22T14:52:34;6.28;;;1.00;;
9854;SDS011;4966;48.112;9.282;2023-03-22T14:55:03;2.25;;;0.90;;
9854;SDS011;4966;48.112;9.282;2023-03-22T14:57:37;1.75;;;0.70;;
9854;SDS011;4966;48.112;9.282;2023-03-22T15:00:07;2.22;;;0.77;;
9854;SDS011;4966;48.112;9.282;2023-03-22T15:02:45;2.30;;;0.90;;
9854;SDS011;4966;48.112;9.282;2023-03-22T15:05:16;1.80;;;0.88;;
9854;SDS011;4966;48.112;9.282;2023-03-22T15:07:51;2.30;;;1.08;;
9854;SDS011;4966;48.112;9.282;2023-03-22T15:10:20;2.20;;;0.98;;
9854;SDS011;4966;48.112;9.282;2023-03-22T15:12:51;1.52;;;0.80;;
9854;SDS011;4966;48.112;9.282;2023-03-22T15:15:20;2.70;;;0.90;;
9854;SDS011;4966;48.112;9.282;2023-03-22T15:17:52;1.35;;;0.65;;
9854;SDS011;4966;48.112;9.282;2023-03-22T15:20:21;2.72;;;1.00;;
9854;SDS011;4966;48.112;9.282;2023-03-22T15:22:51;2.05;;;0.65;;
9854;SDS011;4966;48.112;9.282;2023-03-22T15:25:18;1.08;;;0.52;;
9854;SDS011;4966;48.112;9.282;2023-03-22T15:27:44;0.98;;;0.52;;
9854;SDS011;4966;48.112;9.282;2023-03-22T15:30:10;0.98;;;0.57;;
9854;SDS011;4966;48.112;9.282;2023-03-22T15:32:42;2.65;;;0.65;;
9854;SDS011;4966;48.112;9.282;2023-03-22T15:35:07;0.80;;;0.50;;
9854;SDS011;4966;48.112;9.282;2023-03-22T15:37:38;1.60;;;0.55;;
9854;SDS011;4966;48.112;9.282;2023-03-22T15:40:04;1.42;;;0.50;;
9854;SDS011;4966;48.112;9.282;2023-03-22T15:42:36;1.77;;;0.80;;
9854;SDS011;4966;48.112;9.282;2023-03-22T15:45:11;4.60;;;2.28;;
9854;SDS011;4966;48.112;9.282;2023-03-22T15:50:10;1.27;;;0.60;;
9854;SDS011;4966;48.112;9.282;2023-03-22T15:52:50;0.90;;;0.50;;
9854;SDS011;4966;48.112;9.282;2023-03-22T15:55:18;3.72;;;0.60;;
9854;SDS011;4966;48.112;9.282;2023-03-22T16:05:24;1.52;;;0.60;;
9854;SDS011;4966;48.112;9.282;2023-03-22T16:07:51;1.55;;;0.68;;
9854;SDS011;4966;48.112;9.282;2023-03-22T16:10:19;2.42;;;0.80;;
9854;SDS011;4966;48.112;9.282;2023-03-22T16:12:46;1.88;;;0.70;;
9854;SDS011;4966;48.112;9.282;2023-03-22T16:15:13;2.05;;;1.00;;
9854;SDS011;4966;48.112;9.282;2023-03-22T16:17:50;2.67;;;0.60;;
9854;SDS011;4966;48.112;9.282;2023-03-22T16:20:15;1.42;;;0.47;;
9854;SDS011;4966;48.112;9.282;2023-03-22T16:22:43;1.50;;;0.60;;
9854;SDS011;4966;48.112;9.282;2023-03-22T16:25:15;1.45;;;0.80;;
9854;SDS011;4966;48.112;9.282;2023-03-22T16:27:43;1.08;;;0.57;;
9854;SDS011;4966;48.112;9.282;2023-03-22T16:30:09;1.13;;;0.60;;
9854;SDS011;4966;48.112;9.282;2023-03-22T16:32:34;2.00;;;0.90;;
9854;SDS011;4966;48.112;9.282;2023-03-22T16:35:00;1.60;;;0.52;;
9854;SDS011;4966;48.112;9.282;2023-03-22T16:37:25;4.22;;;1.65;;
9854;SDS011;4966;48.112;9.282;2023-03-22T16:39:51;3.92;;;1.67;;
9854;SDS011;4966;48.112;9.282;2023-03-22T16:44:47;5.38;;;1.08;;
9854;SDS011;4966;48.112;9.282;2023-03-22T16:47:16;3.22;;;1.10;;
9854;SDS011;4966;48.112;9.282;2023-03-22T16:49:44;1.23;;;0.70;;
9854;SDS011;4966;48.112;9.282;2023-03-22T16:52:14;3.33;;;0.90;;
9854;SDS011;4966;48.112;9.282;2023-03-22T16:54:43;3.50;;;0.90;;
9854;SDS011;4966;48.112;9.282;2023-03-22T16:57:13;1.73;;;0.80;;
9854;SDS011;4966;48.112;9.282;2023-03-22T16:59:40;1.30;;;0.63;;